Time;durP1;ratioP1;P1;durP2;ratioP2;P2;SDS_P1;SDS_P2;PMS_P1;PMS_P2;Temp;Humidity;BMP_temperature;BMP_pressure;BME280_temperature;BME280_humidity;BME280_pressure;Samples;Min_cycle;Max_cycle;Signal;HPM_P1;HPM_P2
2022/01/09 00:00:12;;;;;;;6.75;3.10;;;;;;;26.10;28.76;94539.31;5001870;28;20031;-32
2022/01/09 00:02:38;;;;;;;8.30;3.05;;;;;;;26.09;29.00;94541.09;5001521;28;20029;-36
2022/01/09 00:05:04;;;;;;;7.63;3.22;;;;;;;26.10;28.80;94536.69;5002162;28;20030;-31
2022/01/09 00:07:29;;;;;;;8.52;3.40;;;;;;;26.10;28.77;94526.19;5003492;28;20029;-34
2022/01/09 00:09:56;;;;;;;6.40;3.00;;;;;;;26.10;28.79;94526.19;5004219;28;22375;-31
2022/01/09 00:12:23;;;;;;;6.97;3.28;;;;;;;26.10;28.90;94536.69;5002084;28;20103;-28
2022/01/09 00:14:48;;;;;;;7.93;3.47;;;;;;;26.09;28.79;94520.09;4999830;28;20032;-28
2022/01/09 00:17:13;;;;;;;6.32;3.00;;;;;;;26.09;28.96;94514.84;5001086;28;20318;-29
2022/01/09 00:19:39;;;;;;;9.52;3.53;;;;;;;26.09;28.81;94519.28;5001902;28;20435;-29
2022/01/09 00:22:04;;;;;;;7.32;3.03;;;;;;;26.08;28.80;94513.19;4999906;28;20025;-31
2022/01/09 00:24:29;;;;;;;7.13;3.25;;;;;;;26.06;28.92;94503.81;5000336;28;20488;-30
2022/01/09 00:26:55;;;;;;;6.00;2.78;;;;;;;26.09;28.91;94503.53;5008285;28;20037;-34
2022/01/09 00:29:20;;;;;;;6.65;3.03;;;;;;;26.07;28.86;94503.69;5007619;28;20029;-33
2022/01/09 00:31:46;;;;;;;6.40;2.88;;;;;;;26.08;28.90;94488.75;5009671;28;20103;-32
2022/01/09 00:34:11;;;;;;;6.88;2.80;;;;;;;26.07;28.79;94485.31;5009477;28;20590;-29
2022/01/09 00:36:36;;;;;;;8.63;3.17;;;;;;;26.07;28.97;94485.31;5006619;28;20041;-32
2022/01/09 00:39:02;;;;;;;7.50;2.95;;;;;;;26.06;29.02;94478.41;4998610;28;20034;-36
2022/01/09 00:41:28;;;;;;;5.72;2.78;;;;;;;26.07;28.86;94476.59;5006635;28;20029;-31
2022/01/09 00:43:53;;;;;;;6.35;3.17;;;;;;;26.06;28.83;94473.16;5005066;28;20034;-28
2022/01/09 00:46:18;;;;;;;5.47;2.80;;;;;;;26.05;28.93;94471.47;5000282;28;20594;-30
2022/01/09 00:48:44;;;;;;;8.45;2.55;;;;;;;26.05;28.98;94471.47;4997519;28;20045;-28
2022/01/09 00:51:09;;;;;;;5.43;2.78;;;;;;;26.05;28.99;94476.72;5001064;28;20038;-30
2022/01/09 00:53:34;;;;;;;6.78;2.72;;;;;;;26.06;28.99;94472.31;4998756;28;20026;-32
2022/01/09 00:56:00;;;;;;;5.97;2.97;;;;;;;26.04;28.90;94464.56;5001040;28;20156;-29
2022/01/09 00:58:25;;;;;;;6.82;2.97;;;;;;;26.04;29.02;94463.75;5002511;28;20076;-31
2022/01/09 01:00:51;;;;;;;5.28;2.50;;;;;;;26.04;29.07;94464.56;5001389;28;20577;-30
2022/01/09 01:03:16;;;;;;;6.57;2.47;;;;;;;26.04;28.95;94453.25;5001074;28;20030;-34
2022/01/09 01:05:42;;;;;;;5.00;2.60;;;;;;;26.03;28.91;94447.19;5004575;28;20084;-31
2022/01/09 01:08:07;;;;;;;5.70;2.58;;;;;;;26.04;28.82;94448.84;5008313;28;20040;-30
2022/01/09 01:10:32;;;;;;;5.93;2.42;;;;;;;26.04;28.88;94445.38;5006722;28;20042;-31
2022/01/09 01:12:58;;;;;;;5.78;2.67;;;;;;;26.03;28.99;94441.94;4998274;28;20037;-29
2022/01/09 01:15:23;;;;;;;5.10;2.45;;;;;;;26.03;28.91;94452.44;4999524;28;20103;-32
2022/01/09 01:17:49;;;;;;;3.72;2.20;;;;;;;26.03;28.97;94446.34;5001114;28;20033;-34
2022/01/09 01:20:19;;;;;;;4.80;2.30;;;;;;;26.03;28.91;94441.94;5001762;28;20040;-28
2022/01/09 01:22:45;;;;;;;5.45;2.30;;;;;;;26.02;28.99;94435.03;4999762;28;20033;-31
2022/01/09 01:25:10;;;;;;;4.32;2.10;;;;;;;26.02;28.97;94428.94;5001303;28;20033;-28
2022/01/09 01:27:36;;;;;;;5.40;2.45;;;;;;;26.03;28.89;94436.69;5002735;28;20488;-30
2022/01/09 01:30:01;;;;;;;5.53;2.33;;;;;;;26.02;28.96;94440.28;5001395;28;20030;-30
2022/01/09 01:32:27;;;;;;;5.50;2.30;;;;;;;26.02;28.91;94435.03;5002443;28;20499;-31
2022/01/09 01:34:52;;;;;;;5.22;2.10;;;;;;;26.02;28.91;94428.94;5000878;28;20037;-32
2022/01/09 01:37:17;;;;;;;4.47;2.00;;;;;;;26.03;28.84;94434.06;5000837;28;20099;-32
2022/01/09 01:39:43;;;;;;;5.22;1.98;;;;;;;26.01;28.92;94443.84;5004694;28;20114;-30
2022/01/09 01:42:08;;;;;;;6.05;2.05;;;;;;;26.01;29.01;94443.84;5005178;28;20033;-33
2022/01/09 01:44:44;;;;;;;3.88;2.22;;;;;;;26.01;29.01;94435.97;5005496;28;20036;-28
2022/01/09 01:47:09;;;;;;;4.18;2.00;;;;;;;26.01;29.04;94435.97;4993164;28;21252;-29
2022/01/09 01:49:35;;;;;;;4.40;2.25;;;;;;;26.01;29.04;94438.59;5006901;28;20045;-32
2022/01/09 01:52:00;;;;;;;4.68;2.25;;;;;;;26.00;28.90;94442.22;5002401;28;20029;-30
2022/01/09 01:54:27;;;;;;;4.50;2.03;;;;;;;26.00;28.98;94441.41;5004871;28;20029;-33
2022/01/09 01:56:52;;;;;;;3.38;1.80;;;;;;;26.00;29.03;94434.34;5018826;28;20091;-29
2022/01/09 01:59:18;;;;;;;3.88;2.10;;;;;;;26.00;29.07;94436.16;5003398;28;20029;-29
2022/01/09 02:01:43;;;;;;;3.20;1.77;;;;;;;25.99;28.93;94435.31;5005056;28;20036;-29
2022/01/09 02:04:09;;;;;;;4.90;1.95;;;;;;;25.99;28.97;94427.44;5007656;28;20514;-29
2022/01/09 02:06:34;;;;;;;3.67;1.70;;;;;;;25.98;28.98;94431.03;5002940;28;20018;-33
2022/01/09 02:09:01;;;;;;;2.63;1.73;;;;;;;25.98;29.00;94432.81;4985979;28;20573;-29
2022/01/09 02:11:26;;;;;;;3.10;1.80;;;;;;;25.98;29.06;94432.81;5002354;28;20577;-33
2022/01/09 02:13:52;;;;;;;4.90;1.83;;;;;;;25.99;29.00;94424.81;5005706;28;20045;-34
2022/01/09 02:16:18;;;;;;;2.90;1.60;;;;;;;25.98;29.02;94433.66;5003572;28;20673;-29
2022/01/09 02:18:46;;;;;;;4.22;2.10;;;;;;;25.98;28.99;94444.16;5001367;28;20761;-29
2022/01/09 02:21:13;;;;;;;4.07;1.85;;;;;;;25.98;29.08;94433.66;5006281;28;20025;-31
2022/01/09 02:23:41;;;;;;;4.28;1.73;;;;;;;25.97;29.15;94434.59;5004377;28;20696;-35
2022/01/09 02:26:06;;;;;;;3.13;1.77;;;;;;;25.96;29.01;94433.78;5005653;28;20472;-30
2022/01/09 02:28:31;;;;;;;4.30;1.63;;;;;;;25.97;28.94;94437.22;5006079;28;20025;-35
2022/01/09 02:30:57;;;;;;;2.83;1.58;;;;;;;25.98;28.94;94438.91;5004208;28;20099;-35
2022/01/09 02:33:22;;;;;;;3.55;1.98;;;;;;;25.98;29.00;94443.31;5003413;28;20488;-33
2022/01/09 02:35:51;;;;;;;3.75;2.35;;;;;;;25.96;28.90;94440.81;5004027;28;20033;-31
2022/01/09 02:38:16;;;;;;;2.67;1.70;;;;;;;25.96;29.01;94436.41;5004801;28;20021;-29
2022/01/09 02:40:41;;;;;;;2.60;1.50;;;;;;;25.97;28.96;94442.47;5006916;28;20496;-29
2022/01/09 02:43:07;;;;;;;3.17;1.60;;;;;;;25.95;29.11;94439.19;5007008;28;20591;-35
2022/01/09 02:45:32;;;;;;;2.55;1.65;;;;;;;25.95;28.94;94433.94;5005175;28;20026;-28
2022/01/09 02:48:00;;;;;;;5.40;1.60;;;;;;;25.96;29.03;94443.44;5006406;28;20088;-31
2022/01/09 02:52:55;;;;;;;2.83;1.48;;;;;;;25.94;28.90;94456.72;5004105;28;20029;-31
2022/01/09 02:55:20;;;;;;;2.67;1.40;;;;;;;25.95;28.96;94460.16;5004516;28;20021;-32
2022/01/09 02:57:47;;;;;;;3.08;1.65;;;;;;;25.94;28.97;94458.53;5001953;28;20139;-34
2022/01/09 03:00:17;;;;;;;2.63;1.40;;;;;;;25.95;28.89;94454.94;5003861;28;20029;-30
2022/01/09 03:02:42;;;;;;;3.05;1.45;;;;;;;25.94;28.90;94469.03;5004449;28;20057;-29
2022/01/09 03:05:08;;;;;;;2.05;1.15;;;;;;;25.95;28.95;94468.03;5006003;28;20532;-31
2022/01/09 03:07:34;;;;;;;2.95;1.38;;;;;;;25.94;29.13;94474.28;5009975;28;20025;-29
2022/01/09 03:09:59;;;;;;;3.05;1.50;;;;;;;25.93;29.02;94473.44;5009254;28;20033;-30
2022/01/09 03:12:25;;;;;;;2.65;1.30;;;;;;;25.94;28.95;94469.03;5016208;28;20034;-32
2022/01/09 03:14:50;;;;;;;1.92;1.35;;;;;;;25.94;29.02;94472.44;5003454;28;20034;-34
2022/01/09 03:17:15;;;;;;;2.95;1.60;;;;;;;25.94;29.13;94471.66;5004136;28;20233;-34
2022/01/09 03:19:41;;;;;;;1.92;1.30;;;;;;;25.92;29.03;94473.56;5003278;28;20041;-30
2022/01/09 03:22:06;;;;;;;2.70;1.40;;;;;;;25.93;29.06;94467.38;5003330;28;20052;-29
2022/01/09 03:24:32;;;;;;;2.35;1.20;;;;;;;25.93;29.03;94477.88;5003834;28;20155;-33
2022/01/09 03:26:57;;;;;;;3.90;1.55;;;;;;;25.92;28.96;94471.78;5002858;28;20107;-30
2022/01/09 03:29:22;;;;;;;2.55;1.38;;;;;;;25.92;29.04;94470.94;5004605;28;20111;-29
2022/01/09 03:31:48;;;;;;;2.47;1.30;;;;;;;25.92;29.08;94465.69;5008632;28;20034;-36
2022/01/09 03:34:13;;;;;;;2.85;1.17;;;;;;;25.93;29.06;94467.38;5010816;28;20033;-31
2022/01/09 03:36:39;;;;;;;1.50;1.00;;;;;;;25.92;28.95;94473.56;5011635;28;20594;-29
2022/01/09 03:39:04;;;;;;;2.53;1.10;;;;;;;25.91;29.02;94470.13;5008294;28;20099;-34
2022/01/09 03:41:29;;;;;;;1.83;1.00;;;;;;;25.90;29.04;94478.94;5007320;28;20075;-35
2022/01/09 03:43:55;;;;;;;2.70;1.10;;;;;;;25.90;29.15;94484.19;5006506;28;20040;-31
2022/01/09 03:46:20;;;;;;;1.90;1.02;;;;;;;25.90;29.04;94476.31;5007577;28;20502;-33
2022/01/09 03:48:46;;;;;;;1.67;0.95;;;;;;;25.91;29.05;94490.28;5007137;28;20032;-29
2022/01/09 03:51:11;;;;;;;2.85;1.25;;;;;;;25.92;29.06;94491.94;5008787;28;20030;-29
2022/01/09 03:53:37;;;;;;;1.63;0.80;;;;;;;25.90;29.14;94499.13;5007553;28;20036;-29
2022/01/09 03:56:03;;;;;;;1.25;0.93;;;;;;;25.90;29.23;94505.19;5025558;28;20472;-29
2022/01/09 03:58:28;;;;;;;1.67;1.00;;;;;;;25.91;29.04;94511.28;5010333;28;20038;-33
2022/01/09 04:00:54;;;;;;;1.55;1.10;;;;;;;25.90;29.14;94507.00;5011218;28;20026;-29
2022/01/09 04:03:19;;;;;;;2.58;1.30;;;;;;;25.89;29.08;94526.34;5008758;28;20045;-29
2022/01/09 04:05:44;;;;;;;1.75;1.00;;;;;;;25.90;29.14;94535.84;5007335;28;20025;-29
2022/01/09 04:08:10;;;;;;;2.47;1.10;;;;;;;25.90;29.22;94535.84;5008219;28;20681;-30
2022/01/09 04:10:41;;;;;;;6.18;1.13;;;;;;;25.90;29.26;94546.34;5024926;28;20448;-34
2022/01/09 04:13:07;;;;;;;2.05;0.88;;;;;;;25.87;29.30;94544.84;5006940;28;20038;-31
2022/01/09 04:15:32;;;;;;;1.17;0.80;;;;;;;25.87;29.28;94552.72;5023601;28;20034;-30
2022/01/09 04:17:58;;;;;;;3.10;1.15;;;;;;;25.86;29.36;94548.44;5009651;28;20044;-31
2022/01/09 04:20:25;;;;;;;1.83;1.00;;;;;;;25.86;29.19;94555.47;5009521;28;20128;-30
2022/01/09 04:22:51;;;;;;;1.15;0.90;;;;;;;25.86;29.18;94558.09;5008169;28;20042;-30
2022/01/09 04:25:16;;;;;;;1.83;0.85;;;;;;;25.87;29.25;94562.38;5010060;28;20123;-33
2022/01/09 04:27:42;;;;;;;2.95;1.02;;;;;;;25.86;29.28;94571.19;5008643;28;20514;-30
2022/01/09 04:30:08;;;;;;;1.42;0.77;;;;;;;25.86;29.34;94581.69;5006847;28;20666;-32
2022/01/09 04:32:33;;;;;;;1.67;0.80;;;;;;;25.85;29.36;94595.78;5005952;28;20038;-30
2022/01/09 04:34:59;;;;;;;4.47;1.00;;;;;;;25.86;29.37;94608.78;5008256;28;20041;-30
2022/01/09 04:37:25;;;;;;;1.90;0.70;;;;;;;25.86;29.25;94613.19;5009782;28;20033;-30
2022/01/09 04:39:52;;;;;;;1.55;0.90;;;;;;;25.82;29.33;94618.69;5009320;28;20021;-32
2022/01/09 04:42:17;;;;;;;1.85;0.95;;;;;;;25.86;29.47;94634.19;5011826;28;20657;-31
2022/01/09 04:44:43;;;;;;;1.88;0.93;;;;;;;25.86;29.41;94639.44;5008117;28;20450;-34
2022/01/09 04:47:13;;;;;;;1.17;0.75;;;;;;;25.85;29.13;94653.50;5010243;28;20037;-30
2022/01/09 04:49:41;;;;;;;2.08;0.88;;;;;;;25.85;29.27;94666.63;5011317;28;20048;-30
2022/01/09 04:52:09;;;;;;;1.20;0.80;;;;;;;25.84;29.20;94671.03;5010220;28;20064;-30
2022/01/09 04:54:34;;;;;;;1.38;0.90;;;;;;;25.84;29.38;94676.28;5009564;28;20734;-34
2022/01/09 04:57:02;;;;;;;1.52;0.90;;;;;;;25.85;29.43;94682.38;5010046;28;20034;-29
2022/01/09 04:59:31;;;;;;;2.65;0.60;;;;;;;25.85;29.30;94695.50;5012049;28;20071;-31
2022/01/09 05:01:56;;;;;;;1.45;0.70;;;;;;;25.84;29.26;94705.16;5012583;28;22544;-34
2022/01/09 05:04:21;;;;;;;0.82;0.70;;;;;;;25.85;29.26;94713.84;5009572;28;20393;-30
2022/01/09 05:06:47;;;;;;;3.15;0.70;;;;;;;25.83;29.23;94727.91;5013723;28;20040;-31
2022/01/09 05:09:12;;;;;;;2.08;0.80;;;;;;;25.82;29.17;94728.88;5013731;28;20040;-29
2022/01/09 05:11:38;;;;;;;1.42;0.77;;;;;;;25.83;29.35;94740.22;5012061;28;20061;-28
2022/01/09 05:14:03;;;;;;;1.10;0.70;;;;;;;25.82;29.29;94749.06;5012370;28;20124;-30
2022/01/09 05:16:29;;;;;;;1.15;0.52;;;;;;;25.82;29.19;94759.56;5013340;28;20068;-31
2022/01/09 05:19:01;;;;;;;0.80;0.60;;;;;;;25.83;29.26;94769.91;5015638;28;20506;-35
2022/01/09 05:21:27;;;;;;;2.78;0.80;;;;;;;25.82;29.30;94776.13;5017020;28;20026;-31
2022/01/09 05:23:52;;;;;;;1.67;0.80;;;;;;;25.81;29.31;94779.72;5016245;28;20040;-30
2022/01/09 05:26:18;;;;;;;1.00;0.70;;;;;;;25.82;29.36;94789.22;5018798;28;20037;-30
2022/01/09 05:28:43;;;;;;;1.70;0.60;;;;;;;25.81;29.34;94790.19;5016298;28;20038;-33
2022/01/09 05:31:08;;;;;;;1.33;0.70;;;;;;;25.80;29.22;94801.66;5015887;28;20118;-33
2022/01/09 05:33:34;;;;;;;1.83;0.60;;;;;;;25.80;29.22;94801.66;5017100;28;20494;-32
2022/01/09 05:35:59;;;;;;;1.10;0.70;;;;;;;25.80;29.16;94814.78;5016811;28;20033;-31
2022/01/09 05:38:25;;;;;;;1.20;0.40;;;;;;;25.81;29.17;94826.09;5017200;28;20472;-29
2022/01/09 05:40:50;;;;;;;1.08;0.70;;;;;;;25.80;29.25;94830.53;5011370;28;20029;-29
2022/01/09 05:43:15;;;;;;;1.70;0.60;;;;;;;25.79;29.39;94836.75;5008807;28;20029;-32
2022/01/09 05:45:41;;;;;;;0.70;0.60;;;;;;;25.79;29.22;94844.63;5010350;28;20029;-29
2022/01/09 05:48:06;;;;;;;1.02;0.43;;;;;;;25.79;29.35;94851.63;5007229;28;20033;-29
2022/01/09 05:50:33;;;;;;;0.85;0.30;;;;;;;25.79;29.26;94865.59;5008409;28;20037;-32
2022/01/09 05:52:58;;;;;;;1.05;0.57;;;;;;;25.79;29.38;94865.59;5008416;28;20025;-28
2022/01/09 05:55:23;;;;;;;0.98;0.65;;;;;;;25.79;29.15;94870.00;5013490;28;20036;-30
2022/01/09 05:57:49;;;;;;;1.50;0.57;;;;;;;25.79;29.17;94878.72;5004462;28;20029;-29
2022/01/09 06:00:15;;;;;;;0.85;0.40;;;;;;;25.79;29.21;94883.13;5004727;28;20085;-34
2022/01/09 06:02:40;;;;;;;0.93;0.35;;;;;;;25.78;29.32;94887.53;5007376;28;20637;-35
2022/01/09 06:05:07;;;;;;;1.20;0.60;;;;;;;25.78;29.19;94884.09;5003172;28;20090;-35
2022/01/09 06:07:32;;;;;;;0.73;0.45;;;;;;;25.78;29.27;94895.41;5007186;28;20087;-33
2022/01/09 06:09:58;;;;;;;1.85;0.75;;;;;;;25.78;29.28;94905.09;5007542;28;20034;-30
2022/01/09 06:12:23;;;;;;;2.70;0.50;;;;;;;25.78;29.24;94916.38;5008310;28;20029;-33
2022/01/09 06:14:49;;;;;;;3.60;0.50;;;;;;;25.78;29.29;94916.38;5011462;28;20439;-31
2022/01/09 06:17:14;;;;;;;0.63;0.50;;;;;;;25.78;29.18;94921.63;5008168;28;20017;-34
2022/01/09 06:19:39;;;;;;;0.65;0.50;;;;;;;25.77;29.24;94922.59;5010436;28;20052;-28
2022/01/09 06:22:05;;;;;;;0.32;0.30;;;;;;;25.76;29.16;94928.81;5011002;28;20037;-30
2022/01/09 06:24:30;;;;;;;0.40;0.40;;;;;;;25.78;29.19;94940.00;5010098;28;20120;-36
2022/01/09 06:26:56;;;;;;;0.95;0.60;;;;;;;25.78;29.21;94941.81;5010075;28;20033;-30
2022/01/09 06:29:21;;;;;;;1.00;0.50;;;;;;;25.76;29.23;94941.09;5009174;28;20033;-29
2022/01/09 06:31:46;;;;;;;0.63;0.52;;;;;;;25.78;29.33;94952.31;5009804;28;20030;-34
2022/01/09 06:34:13;;;;;;;0.90;0.50;;;;;;;25.78;29.34;94953.13;5010642;28;20033;-30
2022/01/09 06:36:40;;;;;;;1.13;0.50;;;;;;;25.77;29.32;94961.97;4994764;28;20033;-35
2022/01/09 06:39:05;;;;;;;0.65;0.30;;;;;;;25.75;29.31;94958.63;5009724;28;20044;-29
2022/01/09 06:41:31;;;;;;;0.90;0.50;;;;;;;25.78;29.35;94970.66;5007581;28;20411;-31
2022/01/09 06:43:57;;;;;;;1.17;0.60;;;;;;;25.78;29.50;94978.53;5009774;28;20026;-30
2022/01/09 06:46:22;;;;;;;0.70;0.40;;;;;;;25.78;29.25;94981.16;5007720;28;20569;-32
2022/01/09 06:48:47;;;;;;;1.30;0.60;;;;;;;25.78;29.31;94987.22;5007449;28;20033;-34
2022/01/09 06:51:13;;;;;;;0.70;0.43;;;;;;;25.78;29.24;94989.84;5009683;28;20029;-35
2022/01/09 06:53:38;;;;;;;0.80;0.50;;;;;;;25.78;29.32;95002.16;5011548;28;20575;-29
2022/01/09 06:56:04;;;;;;;0.73;0.40;;;;;;;25.78;29.41;95005.59;4993294;28;20022;-29
2022/01/09 06:58:30;;;;;;;1.08;0.50;;;;;;;25.78;29.43;95010.03;5004874;28;20048;-31
2022/01/09 07:00:55;;;;;;;0.93;0.43;;;;;;;25.78;29.17;95021.34;5008439;28;20036;-32
2022/01/09 07:03:21;;;;;;;0.50;0.30;;;;;;;25.79;29.26;95032.69;5008171;28;20029;-30
2022/01/09 07:05:46;;;;;;;0.60;0.35;;;;;;;25.79;29.20;95032.69;5007749;28;20022;-30
2022/01/09 07:08:11;;;;;;;0.93;0.60;;;;;;;25.78;29.37;95037.06;5010096;28;20453;-30
2022/01/09 07:10:37;;;;;;;0.60;0.35;;;;;;;25.79;29.30;95049.25;5007292;28;20484;-31
2022/01/09 07:13:03;;;;;;;0.85;0.30;;;;;;;25.79;29.26;95049.25;5006285;28;20431;-28
2022/01/09 07:15:28;;;;;;;0.68;0.47;;;;;;;25.78;29.25;95047.56;5009764;28;20044;-31
2022/01/09 07:17:53;;;;;;;0.70;0.32;;;;;;;25.79;29.31;95048.41;5007444;28;20090;-29
2022/01/09 07:20:19;;;;;;;1.08;0.50;;;;;;;25.80;29.34;95056.16;5011190;28;20719;-30
2022/01/09 07:22:44;;;;;;;0.50;0.30;;;;;;;25.80;29.28;95071.06;5010637;28;20548;-29
2022/01/09 07:25:10;;;;;;;0.73;0.40;;;;;;;25.80;29.37;95071.91;5009725;28;20026;-31
2022/01/09 07:27:35;;;;;;;0.73;0.30;;;;;;;25.79;29.28;95091.25;5007998;28;20427;-32
2022/01/09 07:30:01;;;;;;;5.28;0.50;;;;;;;25.79;29.29;95093.03;5007143;28;20037;-30
2022/01/09 07:32:28;;;;;;;2.75;0.60;;;;;;;25.78;29.32;95094.81;5007278;28;20037;-29
2022/01/09 07:34:54;;;;;;;5.40;0.75;;;;;;;25.78;29.21;95105.28;5008343;28;20029;-31
2022/01/09 07:37:19;;;;;;;9.05;1.30;;;;;;;25.78;29.01;95089.56;5007828;28;20029;-28
2022/01/09 07:39:44;;;;;;;11.05;1.85;;;;;;;25.77;29.00;95102.78;4998868;28;20474;-30
2022/01/09 07:42:10;;;;;;;8.02;2.10;;;;;;;25.76;29.16;95107.22;5000038;28;20087;-29
2022/01/09 07:44:35;;;;;;;13.80;2.75;;;;;;;25.76;29.14;95120.34;5002172;28;20091;-32
2022/01/09 07:47:00;;;;;;;13.27;2.97;;;;;;;25.76;29.20;95122.13;5000713;28;20451;-34
2022/01/09 07:49:26;;;;;;;12.88;3.00;;;;;;;25.75;29.20;95129.19;5002634;28;20017;-31
2022/01/09 07:51:51;;;;;;;11.00;2.60;;;;;;;25.76;29.28;95137.84;4990542;28;20045;-33
2022/01/09 07:54:17;;;;;;;8.93;2.55;;;;;;;25.76;29.25;95138.72;4999820;28;20045;-36
2022/01/09 07:56:42;;;;;;;14.38;2.55;;;;;;;25.76;29.23;95137.84;4999588;28;20703;-34
2022/01/09 07:59:07;;;;;;;6.80;2.45;;;;;;;25.75;29.18;95146.69;5004139;28;20435;-32
2022/01/09 08:01:33;;;;;;;11.60;2.70;;;;;;;25.76;29.02;95149.19;5002737;28;20033;-32
2022/01/09 08:03:58;;;;;;;6.75;2.42;;;;;;;25.75;29.19;95149.31;5001654;28;20072;-29
2022/01/09 08:06:24;;;;;;;7.20;2.30;;;;;;;25.76;29.17;95158.84;5001930;28;20896;-30
2022/01/09 08:08:49;;;;;;;6.80;2.20;;;;;;;25.75;29.23;95157.19;5001830;28;20044;-30
2022/01/09 08:11:17;;;;;;;12.52;2.50;;;;;;;25.75;29.15;95160.66;5004002;28;20029;-30
2022/01/09 08:13:42;;;;;;;7.80;2.38;;;;;;;25.76;29.04;95166.72;5000730;28;20021;-30
2022/01/09 08:16:07;;;;;;;10.25;2.30;;;;;;;25.76;29.00;95164.94;5002138;28;20033;-36
2022/01/09 08:18:33;;;;;;;7.80;1.98;;;;;;;25.75;28.95;95176.41;5001480;28;20412;-31
2022/01/09 08:20:58;;;;;;;6.18;2.00;;;;;;;25.76;29.12;95175.44;5001522;28;20037;-29
2022/01/09 08:23:24;;;;;;;6.20;2.30;;;;;;;25.76;29.06;95185.94;5003120;28;20096;-32
2022/01/09 08:25:49;;;;;;;5.43;2.20;;;;;;;25.76;29.10;95185.94;5003962;28;20067;-33
2022/01/09 08:28:14;;;;;;;9.80;2.20;;;;;;;25.77;29.13;95178.88;5007010;28;20029;-35
2022/01/09 08:30:43;;;;;;;8.60;2.08;;;;;;;25.75;29.08;95179.03;5003265;28;20025;-33
2022/01/09 08:33:08;;;;;;;9.23;2.17;;;;;;;25.78;29.07;95191.88;5001888;28;20087;-31
2022/01/09 08:35:33;;;;;;;5.47;2.00;;;;;;;25.78;29.10;95188.44;5002366;28;20033;-29
2022/01/09 08:37:59;;;;;;;5.43;2.00;;;;;;;25.79;29.16;95188.31;4981571;28;20083;-34
2022/01/09 08:40:24;;;;;;;6.97;2.40;;;;;;;25.80;29.09;95197.84;5001084;28;20038;-30
2022/01/09 08:42:50;;;;;;;4.15;1.88;;;;;;;25.79;29.12;95206.69;5006579;28;20574;-29
2022/01/09 08:45:16;;;;;;;5.43;2.17;;;;;;;25.81;29.09;95215.25;5001558;28;20169;-33
2022/01/09 08:47:41;;;;;;;6.35;1.85;;;;;;;25.82;29.19;95216.13;5002183;28;20095;-33
2022/01/09 08:50:07;;;;;;;6.50;2.20;;;;;;;25.83;29.23;95223.03;5001827;28;20052;-29
2022/01/09 08:52:33;;;;;;;5.18;1.80;;;;;;;25.84;29.36;95229.94;5003081;28;20488;-33
2022/01/09 08:54:58;;;;;;;7.47;1.77;;;;;;;25.85;29.26;95236.03;5002958;28;20028;-29
2022/01/09 08:57:25;;;;;;;6.43;1.60;;;;;;;25.85;29.24;95236.84;5006333;28;20033;-29
2022/01/09 08:59:51;;;;;;;7.03;2.22;;;;;;;25.87;29.28;95244.59;5005304;28;20163;-28
2022/01/09 09:02:16;;;;;;;5.25;1.80;;;;;;;25.87;29.38;95249.84;5005532;28;20029;-29
2022/01/09 09:04:42;;;;;;;5.45;1.65;;;;;;;25.87;29.38;95245.44;5005189;28;20049;-29
2022/01/09 09:07:07;;;;;;;5.15;2.03;;;;;;;25.89;29.47;95247.97;5008185;28;20025;-28
2022/01/09 09:09:33;;;;;;;4.05;1.70;;;;;;;25.89;29.47;95246.16;5013419;28;20163;-27
2022/01/09 09:11:58;;;;;;;5.43;1.80;;;;;;;25.90;29.35;95244.38;5005447;28;20025;-31
2022/01/09 09:14:23;;;;;;;17.98;2.40;;;;;;;25.90;29.15;95239.13;5003526;28;20033;-29
2022/01/09 09:16:49;;;;;;;11.88;2.03;;;;;;;25.89;29.31;95233.03;5009535;28;20040;-29
2022/01/09 09:19:14;;;;;;;6.05;1.92;;;;;;;25.90;29.29;95244.38;5006640;28;20036;-30
2022/01/09 09:21:40;;;;;;;6.10;2.00;;;;;;;25.90;29.45;95239.13;5003528;28;20033;-30
2022/01/09 09:24:06;;;;;;;5.78;1.98;;;;;;;25.89;29.31;95243.53;5002400;28;20119;-29
2022/01/09 09:26:31;;;;;;;8.50;1.70;;;;;;;25.90;29.05;95244.38;5004646;28;20028;-31
2022/01/09 09:28:56;;;;;;;5.75;2.08;;;;;;;25.91;29.45;95256.53;5002794;28;20029;-35
2022/01/09 09:31:22;;;;;;;4.18;1.88;;;;;;;25.92;29.37;95259.03;5005906;28;20026;-30
2022/01/09 09:33:47;;;;;;;5.25;2.10;;;;;;;25.92;29.31;95256.41;5004637;28;21311;-30
2022/01/09 09:36:13;;;;;;;7.53;2.30;;;;;;;25.92;27.75;95279.19;4995496;28;20036;-31
2022/01/09 09:38:38;;;;;;;5.93;2.30;;;;;;;25.79;24.93;95280.16;4984840;28;20033;-29
2022/01/09 09:41:04;;;;;;;6.90;2.38;;;;;;;25.57;23.04;95287.06;4990077;28;20029;-30
2022/01/09 09:43:29;;;;;;;7.57;2.42;;;;;;;25.35;23.42;95287.78;4986453;28;20684;-28
2022/01/09 09:45:55;;;;;;;7.00;2.38;;;;;;;25.18;23.72;95287.25;5004835;28;20038;-36
2022/01/09 09:48:20;;;;;;;8.73;2.28;;;;;;;25.10;24.33;95294.03;4987060;28;20249;-30
2022/01/09 09:50:46;;;;;;;5.93;1.98;;;;;;;25.03;24.50;95297.13;4990518;28;20029;-32
2022/01/09 09:53:11;;;;;;;13.90;2.40;;;;;;;25.01;24.85;95300.78;4994929;28;20017;-31
2022/01/09 09:55:37;;;;;;;6.90;2.33;;;;;;;24.99;25.13;95303.53;5005481;28;20040;-30
2022/01/09 09:58:02;;;;;;;5.70;2.17;;;;;;;25.00;25.41;95299.97;5008094;28;20030;-29
2022/01/09 10:00:28;;;;;;;8.75;2.10;;;;;;;25.03;25.58;95299.75;5004849;28;20068;-31
2022/01/09 10:03:00;;;;;;;6.45;2.20;;;;;;;25.05;25.90;95287.34;5010411;28;20025;-29
2022/01/09 10:05:27;;;;;;;5.93;1.98;;;;;;;25.11;25.94;95278.22;5003290;28;20025;-31
2022/01/09 10:07:54;;;;;;;6.82;2.20;;;;;;;25.14;25.89;95280.56;5004722;28;20658;-31
2022/01/09 10:10:21;;;;;;;6.38;1.95;;;;;;;25.17;25.98;95269.06;5000932;28;20332;-29
2022/01/09 10:12:47;;;;;;;8.82;2.10;;;;;;;25.19;26.20;95272.38;5003404;28;20029;-31
2022/01/09 10:15:17;;;;;;;6.60;2.30;;;;;;;25.22;26.32;95280.03;5001663;28;20044;-32
2022/01/09 10:17:48;;;;;;;7.38;2.13;;;;;;;25.25;26.42;95292.88;5003712;28;20014;-30
2022/01/09 10:20:14;;;;;;;6.75;2.20;;;;;;;25.27;26.44;95296.25;5003074;28;20029;-32
2022/01/09 10:22:44;;;;;;;11.63;2.65;;;;;;;25.30;26.42;95290.78;4999937;28;20033;-32
2022/01/09 10:25:24;;;;;;;28.98;4.65;;;;;;;25.33;26.71;95304.59;5002489;28;20026;-34
2022/01/09 10:27:50;;;;;;;22.73;4.50;;;;;;;25.36;26.76;95309.63;5008045;28;20113;-30
2022/01/09 10:30:16;;;;;;;21.52;4.07;;;;;;;25.39;26.78;95315.47;5010989;28;20075;-31
2022/01/09 10:32:41;;;;;;;27.00;4.43;;;;;;;25.42;26.85;95319.63;5008926;28;20025;-29
2022/01/09 10:35:12;;;;;;;23.00;4.35;;;;;;;25.45;26.94;95319.41;5011797;28;20041;-31
2022/01/09 10:37:37;;;;;;;26.45;5.07;;;;;;;25.47;27.06;95317.50;5009696;28;20084;-29
2022/01/09 10:40:05;;;;;;;15.93;4.00;;;;;;;25.48;27.15;95316.56;5011774;28;20116;-31
2022/01/09 10:42:31;;;;;;;22.42;4.55;;;;;;;25.51;27.17;95318.94;5010971;28;20032;-30
2022/01/09 10:44:56;;;;;;;23.48;4.22;;;;;;;25.53;27.10;95322.31;5008477;28;20030;-31
2022/01/09 10:47:22;;;;;;;27.10;3.95;;;;;;;25.55;27.22;95328.25;5025705;28;20058;-32
2022/01/09 10:49:51;;;;;;;11.98;3.55;;;;;;;25.56;27.39;95337.81;5017396;28;20654;-29
2022/01/09 10:52:29;;;;;;;12.00;3.55;;;;;;;25.59;27.40;95341.19;5004156;28;20112;-31
2022/01/09 10:54:56;;;;;;;10.27;3.40;;;;;;;25.61;27.55;95334.00;5005560;28;20037;-29
2022/01/09 10:57:26;;;;;;;13.48;3.00;;;;;;;25.61;27.62;95331.41;5009760;28;20415;-30
2022/01/09 10:59:51;;;;;;;9.02;3.50;;;;;;;25.63;27.53;95330.31;5011393;28;20044;-29
2022/01/09 11:02:17;;;;;;;8.48;2.97;;;;;;;25.64;27.61;95337.25;5009066;28;20029;-34
2022/01/09 11:04:45;;;;;;;12.50;3.10;;;;;;;25.66;27.51;95332.72;5009212;28;20084;-30
2022/01/09 11:07:10;;;;;;;13.82;3.25;;;;;;;25.68;27.78;95330.84;5010525;28;20037;-30
2022/01/09 11:09:40;;;;;;;10.18;2.85;;;;;;;25.69;27.92;95334.28;5013077;28;20678;-31
2022/01/09 11:12:06;;;;;;;7.88;2.53;;;;;;;25.71;27.97;95335.00;5006162;28;20718;-35
2022/01/09 11:14:36;;;;;;;10.30;2.63;;;;;;;25.72;27.91;95341.06;5009258;28;20068;-30
2022/01/09 11:17:03;;;;;;;8.02;2.97;;;;;;;25.74;28.03;95345.25;5007445;28;20034;-32
2022/01/09 11:19:29;;;;;;;10.68;2.83;;;;;;;25.74;27.97;95345.25;5006187;28;20088;-30
2022/01/09 11:21:59;;;;;;;8.48;2.80;;;;;;;25.76;27.89;95343.38;5010619;28;20045;-32
2022/01/09 11:25:02;;;;;;;8.90;2.80;;;;;;;25.77;28.12;95331.91;5009156;28;20029;-29
2022/01/09 11:27:38;;;;;;;5.93;2.55;;;;;;;25.79;28.05;95332.66;5008925;28;20037;-30